Humidity-temperature Sensor

Selected Measurement Type: Relative Humidity

 
Relative Humidity [%]     6 entries per hour
Showing data from 9/27/2015 (00:00:00 Z) to 9/24/2015 (00:01:00 Z)
Previous Next [ Day | 3-Days | 7-Days ]
First Last
Prev [ Day | 3-Days | 7-Days ] Next
First Last

Start Time:     :
End Time:     :     
Time (in GMT) :00 :50 :40 :30 :20 :10
Previous Next [ Day | 3-Days | 7-Days ]
First Last
Prev [ Day | 3-Days | 7-Days ] Next
First Last


123 => good data
MM => data is determined as missing
-- => data not received/configured
Back to Top Back to Top
9/27/2015 00:00 to 23:10 76.50 76.01 75.18 75.55 76.03 75.27
9/26/2015 23:00 to 22:10 76.96 76.89 77.63 76.35 77.78 76.55
9/26/2015 22:00 to 21:10 77.98 76.76 77.76 78.06 76.87 75.96
9/26/2015 21:00 to 20:10 75.79 74.56 75.51 79.43 79.69 79.04
9/26/2015 20:00 to 19:10 77.00 77.37 77.26 76.98 76.81 76.98
9/26/2015 19:00 to 18:10 77.09 78.08 77.30 77.41 76.16 76.20
9/26/2015 18:00 to 17:10 77.07 76.53 76.94 76.89 77.05 78.06
9/26/2015 17:00 to 16:10 77.50 77.61 77.91 78.63 78.43 79.23
9/26/2015 16:00 to 15:10 79.49 78.65 79.19 79.43 78.86 78.86
9/26/2015 15:00 to 14:10 79.25 78.82 78.34 76.83 77.09 79.45
9/26/2015 14:00 to 13:10 77.05 77.48 78.28 77.91 77.85 77.02
9/26/2015 13:00 to 12:10 78.28 77.26 79.95 79.51 77.67 79.25
9/26/2015 12:00 to 11:10 77.28 78.73 77.63 78.04 78.67 78.60
9/26/2015 11:00 to 10:10 78.54 78.52 77.33 76.53 77.13 77.30
9/26/2015 10:00 to 9:10 80.16 79.99 79.77 80.29 80.44 80.66
9/26/2015 09:00 to 8:10 80.10 80.34 80.31 79.34 80.34 79.92
9/26/2015 08:00 to 7:10 79.92 76.63 80.42 79.69 78.82 78.63
9/26/2015 07:00 to 6:10 78.17 78.39 79.34 80.29 80.01 79.84
9/26/2015 06:00 to 5:10 78.91 78.32 77.82 79.08 79.19 80.51
9/26/2015 05:00 to 4:10 79.90 79.10 78.54 77.37 77.52 78.63
9/26/2015 04:00 to 3:10 77.43 76.55 75.83 75.29 77.11 78.45
9/26/2015 03:00 to 2:10 78.26 77.15 76.79 75.53 76.89 75.14
9/26/2015 02:00 to 1:10 76.01 74.01 76.94 77.15 76.29 75.96
9/26/2015 01:00 to 0:10 79.01 77.69 77.67 77.63 76.83 78.04
9/26/2015 00:00 to 23:10 76.27 75.51 78.52 80.94 79.27 78.67
9/25/2015 23:00 to 22:10 79.86 80.05 80.70 79.97 79.75 81.35
9/25/2015 22:00 to 21:10 80.85 80.79 81.03 80.21 80.36 80.12
9/25/2015 21:00 to 20:10 80.10 79.99 80.38 81.53 80.53 80.38
9/25/2015 20:00 to 19:10 79.36 79.27 79.30 78.84 79.99 79.66
9/25/2015 19:00 to 18:10 79.14 79.01 78.06 80.01 80.01 79.92
9/25/2015 18:00 to 17:10 78.52 80.25 81.03 80.23 81.18 79.99
9/25/2015 17:00 to 16:10 80.90 80.21 82.13 81.33 82.87 81.50
9/25/2015 16:00 to 15:10 80.64 79.71 79.92 80.34 80.57 80.34
9/25/2015 15:00 to 14:10 79.90 79.36 79.66 79.45 81.66 81.87
9/25/2015 14:00 to 13:10 80.68 80.05 81.01 80.42 80.16 81.24
9/25/2015 13:00 to 12:10 81.37 81.66 82.78 82.24 81.76 81.01
9/25/2015 12:00 to 11:10 79.88 79.43 79.51 80.05 79.64 79.92
9/25/2015 11:00 to 10:10 80.66 82.46 82.54 80.18 79.56 81.61
9/25/2015 10:00 to 9:10 82.13 81.03 80.98 82.78 81.96 81.42
9/25/2015 09:00 to 8:10 80.92 80.18 81.16 80.46 80.53 80.16
9/25/2015 08:00 to 7:10 78.82 79.49 79.77 79.66 80.27 78.63
9/25/2015 07:00 to 6:10 78.00 79.38 80.66 80.29 79.99 80.42
9/25/2015 06:00 to 5:10 79.01 79.56 80.46 79.73 79.58 78.52
9/25/2015 05:00 to 4:10 80.23 79.17 79.01 78.43 79.51 78.71
9/25/2015 04:00 to 3:10 78.50 79.12 80.18 80.10 80.53 80.72
9/25/2015 03:00 to 2:10 80.96 79.62 79.23 78.52 78.41 77.95
9/25/2015 02:00 to 1:10 77.87 80.70 80.34 79.06 78.76 79.49
9/25/2015 01:00 to 0:10 79.19 80.66 80.42 79.88 78.73 77.63
9/25/2015 00:00 to 23:10 78.41 77.50 79.32 78.41 77.89 78.58
9/24/2015 23:00 to 22:10 78.76 81.61 81.14 80.55 81.14 80.44
9/24/2015 22:00 to 21:10 81.07 82.67 81.96 80.55 81.83 81.70
9/24/2015 21:00 to 20:10 80.25 80.72 81.22 81.66 81.37 82.09
9/24/2015 20:00 to 19:10 81.14 80.62 81.07 80.90 80.46 80.83
9/24/2015 19:00 to 18:10 80.77 81.46 80.51 80.16 80.49 80.44
9/24/2015 18:00 to 17:10 80.34 80.08 79.99 79.99 79.21 78.56
9/24/2015 17:00 to 16:10 78.80 78.02 79.66 79.14 80.94 79.92
9/24/2015 16:00 to 15:10 81.14 80.70 80.23 81.01 81.14 81.94
9/24/2015 15:00 to 14:10 82.28 82.02 82.82 82.22 82.28 81.53
9/24/2015 14:00 to 13:10 81.57 83.11 82.15 82.11 82.05 81.22
9/24/2015 13:00 to 12:10 80.75 81.42 81.85 81.33 81.81 81.22
9/24/2015 12:00 to 11:10 81.46 80.57 80.77 81.09 82.95 81.53
9/24/2015 11:00 to 10:10 81.05 81.03 81.94 82.02 82.07 81.85
9/24/2015 10:00 to 9:10 81.74 81.55 82.82 81.22 80.92 80.29
9/24/2015 09:00 to 8:10 81.68 82.48 81.61 81.33 81.57 82.02
9/24/2015 08:00 to 7:10 81.44 81.33 81.37 80.62 81.31 82.05
9/24/2015 07:00 to 6:10 82.26 82.61 83.04 83.71 82.95 82.13
9/24/2015 06:00 to 5:10 81.81 80.72 79.73 79.21 78.50 78.60
9/24/2015 05:00 to 4:10 79.62 78.45 78.41 79.99 80.81 79.66
9/24/2015 04:00 to 3:10 79.99 80.05 79.53 80.03 79.99 79.60
9/24/2015 03:00 to 2:10 80.01 80.38 80.03 80.10 79.64 79.53
9/24/2015 02:00 to 1:10 79.25 79.32 79.49 79.86 80.25 81.42
9/24/2015 01:00 to 0:10 75.55 81.46 80.75 81.74 80.64 80.44